createdAt,value
2018-03-28T00:00:08.695Z,981.81
2018-03-28T00:01:08.856Z,981.79
2018-03-28T00:02:09.022Z,981.76
2018-03-28T00:03:09.202Z,981.76
2018-03-28T00:04:09.390Z,981.73
2018-03-28T00:05:09.559Z,981.73
2018-03-28T00:06:09.739Z,981.72
2018-03-28T00:07:09.918Z,981.74
2018-03-28T00:08:10.081Z,981.72
2018-03-28T00:09:10.264Z,981.65
2018-03-28T00:10:10.440Z,981.68
2018-03-28T00:11:10.630Z,981.66
2018-03-28T00:12:10.802Z,981.65
2018-03-28T00:13:10.982Z,981.65
2018-03-28T00:14:11.155Z,981.64
2018-03-28T00:15:11.334Z,981.67
2018-03-28T00:16:11.514Z,981.66
2018-03-28T00:17:11.693Z,981.64
2018-03-28T00:18:11.873Z,981.65
2018-03-28T00:19:12.053Z,981.61
2018-03-28T00:20:12.230Z,981.59
2018-03-28T00:21:12.419Z,981.63
2018-03-28T00:22:12.591Z,981.58
2018-03-28T00:23:12.775Z,981.56
2018-03-28T00:24:12.996Z,981.54
2018-03-28T00:25:13.126Z,981.46
2018-03-28T00:26:13.304Z,981.49
2018-03-28T00:27:13.502Z,981.43
2018-03-28T00:28:13.662Z,981.44
2018-03-28T00:29:13.836Z,981.46
2018-03-28T00:30:14.018Z,981.43
2018-03-28T00:31:14.195Z,981.41
2018-03-28T00:32:14.372Z,981.37
2018-03-28T00:33:14.578Z,981.34
2018-03-28T00:34:15.008Z,981.33
2018-03-28T00:35:14.904Z,981.34
2018-03-28T00:36:15.082Z,981.37
2018-03-28T00:37:15.268Z,981.36
2018-03-28T00:38:15.481Z,981.36
2018-03-28T00:39:15.624Z,981.35
2018-03-28T00:40:15.793Z,981.28
2018-03-28T00:41:15.975Z,981.35
2018-03-28T00:42:16.151Z,981.34
2018-03-28T00:43:16.332Z,981.39
2018-03-28T00:44:16.529Z,981.37
2018-03-28T00:45:16.676Z,981.39
2018-03-28T00:46:16.856Z,981.38
2018-03-28T00:48:17.214Z,981.38
2018-03-28T00:49:17.393Z,981.31
2018-03-28T00:50:17.568Z,981.34
2018-03-28T00:51:17.753Z,981.29
2018-03-28T00:52:17.928Z,981.28
2018-03-28T00:53:18.101Z,981.30
2018-03-28T00:54:18.282Z,981.25
2018-03-28T00:55:18.462Z,981.25
2018-03-28T00:56:18.677Z,981.21
2018-03-28T00:57:18.813Z,981.18
2018-03-28T00:58:18.992Z,981.20
2018-03-28T00:59:19.194Z,981.18
2018-03-28T01:00:19.344Z,981.13
2018-03-28T01:01:19.765Z,981.13
2018-03-28T01:02:19.708Z,981.16
2018-03-28T01:03:19.887Z,981.13
2018-03-28T01:04:20.064Z,981.12
2018-03-28T01:05:20.245Z,981.12
2018-03-28T01:06:20.425Z,981.11
2018-03-28T01:07:20.625Z,981.11
2018-03-28T01:08:20.777Z,981.06
2018-03-28T01:09:20.960Z,981.07
2018-03-28T01:10:21.137Z,981.01
2018-03-28T01:11:21.321Z,981.06
2018-03-28T01:12:21.488Z,981.01
2018-03-28T01:13:21.667Z,980.98
2018-03-28T01:14:21.848Z,981.01
2018-03-28T01:15:22.031Z,980.96
2018-03-28T01:16:22.210Z,980.94
2018-03-28T01:17:22.379Z,980.94
2018-03-28T01:18:22.558Z,980.95
2018-03-28T01:19:22.739Z,980.93
2018-03-28T01:20:22.908Z,980.91
2018-03-28T01:22:23.258Z,980.94
2018-03-28T01:23:23.436Z,980.90
2018-03-28T01:24:23.617Z,980.86
2018-03-28T01:25:23.792Z,980.86
2018-03-28T01:26:23.971Z,980.87
2018-03-28T01:27:24.160Z,980.85
2018-03-28T01:28:24.331Z,980.86
2018-03-28T01:29:24.515Z,980.87
2018-03-28T01:30:24.690Z,980.83
2018-03-28T01:31:24.885Z,980.81
2018-03-28T01:32:25.775Z,980.83
2018-03-28T01:33:25.233Z,980.80
2018-03-28T01:34:26.279Z,980.79
2018-03-28T01:35:25.591Z,980.78
2018-03-28T01:36:25.770Z,980.75
2018-03-28T01:37:25.948Z,980.73
2018-03-28T01:38:26.124Z,980.74
2018-03-28T01:39:26.298Z,980.76
2018-03-28T01:40:26.476Z,980.73
2018-03-28T01:41:26.661Z,980.69
2018-03-28T01:42:26.841Z,980.71
2018-03-28T01:43:27.014Z,980.68
2018-03-28T01:44:27.194Z,980.69
2018-03-28T01:45:27.376Z,980.69
2018-03-28T01:46:27.557Z,980.72
2018-03-28T01:47:27.723Z,980.66
2018-03-28T01:48:27.902Z,980.66
2018-03-28T01:49:28.081Z,980.63
2018-03-28T01:50:28.271Z,980.61
2018-03-28T01:51:28.439Z,980.65
2018-03-28T01:52:28.622Z,980.57
2018-03-28T01:53:28.798Z,980.64
2018-03-28T01:54:28.979Z,980.62
2018-03-28T01:55:29.174Z,980.62
2018-03-28T01:56:29.326Z,980.58
2018-03-28T01:57:29.505Z,980.56
2018-03-28T01:58:29.683Z,980.57
2018-03-28T01:59:29.865Z,980.57
2018-03-28T02:00:30.041Z,980.55
2018-03-28T02:01:30.219Z,980.58
2018-03-28T02:02:30.420Z,980.56
2018-03-28T02:03:30.565Z,980.53
2018-03-28T02:04:30.757Z,980.52
2018-03-28T02:05:30.922Z,980.53
2018-03-28T02:06:31.095Z,980.48
2018-03-28T02:07:31.279Z,980.48
2018-03-28T02:09:31.631Z,980.51
2018-03-28T02:10:31.800Z,980.48
2018-03-28T02:11:31.989Z,980.49
2018-03-28T02:12:32.164Z,980.42
2018-03-28T02:13:32.345Z,980.45
2018-03-28T02:14:32.516Z,980.43
2018-03-28T02:15:32.698Z,980.47
2018-03-28T02:16:32.884Z,980.42
2018-03-28T02:17:33.084Z,980.43
2018-03-28T02:18:33.231Z,980.46
2018-03-28T02:19:33.400Z,980.46
2018-03-28T02:20:33.576Z,980.43
2018-03-28T02:21:33.762Z,980.43
2018-03-28T02:22:33.935Z,980.49
2018-03-28T02:23:34.106Z,980.50
2018-03-28T02:24:34.284Z,980.48
2018-03-28T02:25:34.468Z,980.47
2018-03-28T02:26:34.640Z,980.47
2018-03-28T02:27:34.818Z,980.48
2018-03-28T02:28:35.022Z,980.44
2018-03-28T02:29:35.178Z,980.42
2018-03-28T02:30:35.362Z,980.43
2018-03-28T02:31:35.538Z,980.39
2018-03-28T02:32:35.712Z,980.33
2018-03-28T02:33:35.896Z,980.40
2018-03-28T02:34:36.068Z,980.42
2018-03-28T02:35:36.252Z,980.40
2018-03-28T02:36:36.428Z,980.36
2018-03-28T02:37:36.607Z,980.42
2018-03-28T02:38:36.774Z,980.38
2018-03-28T02:39:36.955Z,980.37
2018-03-28T02:40:37.157Z,980.38
2018-03-28T02:41:37.310Z,980.39
2018-03-28T02:42:37.490Z,980.39
2018-03-28T02:43:37.667Z,980.36
2018-03-28T02:44:37.850Z,980.37
2018-03-28T02:45:38.027Z,980.40
2018-03-28T02:46:38.205Z,980.31
2018-03-28T02:47:38.384Z,980.37
2018-03-28T02:48:38.562Z,980.31
2018-03-28T02:49:38.741Z,980.29
2018-03-28T02:50:38.920Z,980.29
2018-03-28T02:51:39.110Z,980.27
2018-03-28T02:52:39.278Z,980.29
2018-03-28T02:53:39.456Z,980.30
2018-03-28T02:54:39.634Z,980.33
2018-03-28T02:55:39.819Z,980.31
2018-03-28T02:56:39.991Z,980.33
2018-03-28T02:57:40.185Z,980.30
2018-03-28T02:58:40.353Z,980.31
2018-03-28T02:59:40.559Z,980.30
2018-03-28T03:00:40.731Z,980.34
2018-03-28T03:01:40.908Z,980.35
2018-03-28T03:02:41.088Z,980.27
2018-03-28T03:03:41.274Z,980.29
2018-03-28T03:04:41.447Z,980.30
2018-03-28T03:05:41.620Z,980.33
2018-03-28T03:06:41.794Z,980.25
2018-03-28T03:07:41.978Z,980.29
2018-03-28T03:08:42.151Z,980.24
2018-03-28T03:09:42.336Z,980.28
2018-03-28T03:10:42.515Z,980.26
2018-03-28T03:11:42.694Z,980.30
2018-03-28T03:12:42.875Z,980.28
2018-03-28T03:13:43.102Z,980.26
2018-03-28T03:14:43.230Z,980.27
2018-03-28T03:15:43.408Z,980.28
2018-03-28T03:16:43.600Z,980.28
2018-03-28T03:17:43.773Z,980.31
2018-03-28T03:18:43.961Z,980.29
2018-03-28T03:19:44.136Z,980.28
2018-03-28T03:20:44.311Z,980.27
2018-03-28T03:21:44.492Z,980.25
2018-03-28T03:22:44.672Z,980.24
2018-03-28T03:23:44.852Z,980.23
2018-03-28T03:24:45.030Z,980.23
2018-03-28T03:25:45.206Z,980.19
2018-03-28T03:26:45.385Z,980.20
2018-03-28T03:27:45.586Z,980.20
2018-03-28T03:28:45.745Z,980.20
2018-03-28T03:29:45.916Z,980.18
2018-03-28T03:30:46.102Z,980.17
2018-03-28T03:31:46.285Z,980.20
2018-03-28T03:32:46.471Z,980.13
2018-03-28T03:33:46.640Z,980.16
2018-03-28T03:34:46.821Z,980.23
2018-03-28T03:35:46.993Z,980.27
2018-03-28T03:36:47.168Z,980.20
2018-03-28T03:37:47.363Z,980.24
2018-03-28T03:38:47.540Z,980.23
2018-03-28T03:39:47.721Z,980.19
2018-03-28T03:40:47.900Z,980.21
2018-03-28T03:41:48.077Z,980.16
2018-03-28T03:42:48.252Z,980.19
2018-03-28T03:43:48.435Z,980.17
2018-03-28T03:44:48.614Z,980.13
2018-03-28T03:45:48.793Z,980.19
2018-03-28T03:46:49.346Z,980.17
2018-03-28T03:47:49.143Z,980.18
2018-03-28T03:48:49.312Z,980.16
2018-03-28T03:49:49.488Z,980.15
2018-03-28T03:50:49.659Z,980.18
2018-03-28T03:51:49.825Z,980.15
2018-03-28T03:52:49.999Z,980.15
2018-03-28T03:53:50.184Z,980.10
2018-03-28T03:54:50.364Z,980.10
2018-03-28T03:55:50.545Z,980.16
2018-03-28T03:56:51.013Z,980.17
2018-03-28T03:57:50.889Z,980.20
2018-03-28T03:58:51.072Z,980.15
2018-03-28T03:59:51.232Z,980.21
2018-03-28T04:00:51.413Z,980.21
2018-03-28T04:01:51.583Z,980.22
2018-03-28T04:02:51.764Z,980.21
2018-03-28T04:03:51.933Z,980.23
2018-03-28T04:04:52.115Z,980.25
2018-03-28T04:05:52.294Z,980.21
2018-03-28T04:06:52.467Z,980.21
2018-03-28T04:07:52.678Z,980.14
2018-03-28T04:08:52.826Z,980.14
2018-03-28T04:09:53.046Z,980.14
2018-03-28T04:10:53.196Z,980.18
2018-03-28T04:11:53.372Z,980.18
2018-03-28T04:12:53.545Z,980.20
2018-03-28T04:13:53.722Z,980.16
2018-03-28T04:14:53.902Z,980.20
2018-03-28T04:15:54.080Z,980.15
2018-03-28T04:16:54.275Z,980.22
2018-03-28T04:17:54.427Z,980.20
2018-03-28T04:18:54.605Z,980.18
2018-03-28T04:19:54.783Z,980.16
2018-03-28T04:20:54.962Z,980.16
2018-03-28T04:21:55.146Z,980.17
2018-03-28T04:22:55.318Z,980.16
2018-03-28T04:23:55.498Z,980.15
2018-03-28T04:24:55.682Z,980.14
2018-03-28T04:25:55.859Z,980.15
2018-03-28T04:26:56.046Z,980.11
2018-03-28T04:27:56.221Z,980.17
2018-03-28T04:28:57.314Z,980.13
2018-03-28T04:29:56.567Z,980.14
2018-03-28T04:30:56.750Z,980.10
2018-03-28T04:31:56.923Z,980.12
2018-03-28T04:32:57.118Z,980.11
2018-03-28T04:33:57.286Z,980.12
2018-03-28T04:34:57.474Z,980.15
2018-03-28T04:35:57.645Z,980.15
2018-03-28T04:36:57.824Z,980.12
2018-03-28T04:37:58.010Z,980.14
2018-03-28T04:38:58.191Z,980.12
2018-03-28T04:39:58.365Z,980.10
2018-03-28T04:40:58.578Z,980.11
2018-03-28T04:41:58.709Z,980.11
2018-03-28T04:42:58.942Z,980.13
2018-03-28T04:43:59.324Z,980.15
2018-03-28T04:44:59.252Z,980.11
2018-03-28T04:45:59.428Z,980.17
2018-03-28T04:46:59.605Z,980.13
2018-03-28T04:47:59.784Z,980.13
2018-03-28T04:48:59.973Z,980.14
2018-03-28T04:50:00.139Z,980.09
2018-03-28T04:51:00.302Z,980.15
2018-03-28T04:52:00.490Z,980.10
2018-03-28T04:53:00.667Z,980.12
2018-03-28T04:54:01.105Z,980.13
2018-03-28T04:55:01.037Z,980.11
2018-03-28T04:56:01.211Z,980.11
2018-03-28T04:57:01.406Z,980.11
2018-03-28T04:58:01.562Z,980.10
2018-03-28T04:59:01.754Z,980.07
2018-03-28T05:00:01.908Z,980.11
2018-03-28T05:01:02.088Z,980.10
2018-03-28T05:02:02.268Z,980.11
2018-03-28T05:03:02.452Z,980.07
2018-03-28T05:04:02.673Z,980.04
2018-03-28T05:05:02.804Z,980.06
2018-03-28T05:06:02.992Z,980.02
2018-03-28T05:07:03.180Z,980.02
2018-03-28T05:08:03.370Z,980.03
2018-03-28T05:09:03.544Z,980.02
2018-03-28T05:10:03.723Z,980.03
2018-03-28T05:11:03.923Z,980.01
2018-03-28T05:12:04.071Z,980.06
2018-03-28T05:13:04.248Z,980.04
2018-03-28T05:14:04.428Z,980.03
2018-03-28T05:15:04.600Z,980.00
2018-03-28T05:16:04.770Z,980.02
2018-03-28T05:17:04.949Z,979.97
2018-03-28T05:18:05.134Z,979.97
2018-03-28T05:19:05.336Z,979.99
2018-03-28T05:20:05.540Z,979.97
2018-03-28T05:21:05.702Z,979.94
2018-03-28T05:22:05.889Z,979.99
2018-03-28T05:23:06.041Z,980.01
2018-03-28T05:24:06.209Z,979.95
2018-03-28T05:25:06.384Z,979.96
2018-03-28T05:26:06.565Z,979.95
2018-03-28T05:27:06.755Z,979.98
2018-03-28T05:28:06.913Z,979.94
2018-03-28T05:29:07.097Z,979.93
2018-03-28T05:30:07.314Z,979.92
2018-03-28T05:31:07.696Z,979.94
2018-03-28T05:32:07.613Z,979.94
2018-03-28T05:33:07.796Z,979.92
2018-03-28T05:34:07.976Z,979.96
2018-03-28T05:35:08.145Z,979.96
2018-03-28T05:36:08.321Z,979.98
2018-03-28T05:37:08.502Z,979.97
2018-03-28T05:38:08.677Z,979.97
2018-03-28T05:39:08.857Z,980.02
2018-03-28T05:40:09.047Z,979.99
2018-03-28T05:41:09.890Z,979.99
2018-03-28T05:42:09.445Z,979.98
2018-03-28T05:43:09.623Z,980.04
2018-03-28T05:44:09.803Z,980.04
2018-03-28T05:45:09.984Z,980.01
2018-03-28T05:46:10.892Z,980.00
2018-03-28T05:47:10.322Z,980.03
2018-03-28T05:48:10.751Z,980.04
2018-03-28T05:49:10.691Z,980.03
2018-03-28T05:50:10.870Z,980.06
2018-03-28T05:51:11.059Z,979.97
2018-03-28T05:52:11.238Z,980.01
2018-03-28T05:53:11.421Z,979.98
2018-03-28T05:54:11.604Z,980.00
2018-03-28T05:55:11.783Z,979.97
2018-03-28T05:56:11.975Z,979.99
2018-03-28T05:57:12.140Z,980.00
2018-03-28T05:58:12.317Z,979.98
2018-03-28T05:59:12.503Z,979.98
2018-03-28T06:00:12.715Z,979.99
2018-03-28T06:01:12.847Z,979.96
2018-03-28T06:02:13.023Z,979.97
2018-03-28T06:03:13.221Z,979.94
2018-03-28T06:04:13.423Z,979.93
2018-03-28T06:05:13.610Z,979.89
2018-03-28T06:06:13.782Z,979.92
2018-03-28T06:07:13.956Z,979.88
2018-03-28T06:08:14.134Z,979.95
2018-03-28T06:10:14.495Z,979.92
2018-03-28T06:11:14.678Z,979.91
2018-03-28T06:12:14.855Z,979.85
2018-03-28T06:13:15.029Z,979.86
2018-03-28T06:14:15.196Z,979.82
2018-03-28T06:15:15.443Z,979.86
2018-03-28T06:16:15.550Z,979.88
2018-03-28T06:17:15.732Z,979.90
2018-03-28T06:18:15.912Z,979.87
2018-03-28T06:19:16.090Z,979.85
2018-03-28T06:20:16.284Z,979.86
2018-03-28T06:21:16.463Z,979.84
2018-03-28T06:22:16.656Z,979.84
2018-03-28T06:23:16.836Z,979.88
2018-03-28T06:24:17.006Z,979.86
2018-03-28T06:25:17.453Z,979.87
2018-03-28T06:26:17.357Z,979.86
2018-03-28T06:27:17.538Z,979.92
2018-03-28T06:28:17.725Z,979.94
2018-03-28T06:29:17.898Z,979.92
2018-03-28T06:30:18.072Z,979.91
2018-03-28T06:31:18.255Z,979.88
2018-03-28T06:32:18.423Z,979.89
2018-03-28T06:33:18.607Z,979.87
2018-03-28T06:34:18.791Z,979.89
2018-03-28T06:35:18.971Z,979.91
2018-03-28T06:36:19.125Z,979.91
2018-03-28T06:37:19.328Z,979.87
2018-03-28T06:38:19.518Z,979.91
2018-03-28T06:39:19.690Z,979.88
2018-03-28T06:40:19.866Z,979.86
2018-03-28T06:41:20.044Z,979.83
2018-03-28T06:42:20.228Z,979.81
2018-03-28T06:43:20.418Z,979.89
2018-03-28T06:44:20.590Z,979.83
2018-03-28T06:45:20.769Z,979.91
2018-03-28T06:46:20.962Z,979.89
2018-03-28T06:47:21.158Z,979.88
2018-03-28T06:48:21.305Z,979.81
2018-03-28T06:49:21.487Z,979.79
2018-03-28T06:50:21.674Z,979.84
2018-03-28T06:51:21.867Z,979.80
2018-03-28T06:52:22.286Z,979.79
2018-03-28T06:53:22.912Z,979.81
2018-03-28T06:54:22.483Z,979.82
2018-03-28T06:55:22.645Z,979.75
2018-03-28T06:56:22.812Z,979.71
2018-03-28T06:57:22.985Z,979.74
2018-03-28T06:58:23.173Z,979.74
2018-03-28T07:00:24.420Z,979.73
2018-03-28T07:01:23.762Z,979.74
2018-03-28T07:02:23.918Z,979.74
2018-03-28T07:03:24.093Z,979.72
2018-03-28T07:04:24.273Z,979.74
2018-03-28T07:05:24.450Z,979.74
2018-03-28T07:06:24.628Z,979.72
2018-03-28T07:07:24.803Z,979.74
2018-03-28T07:08:24.982Z,979.76
2018-03-28T07:09:25.161Z,979.69
2018-03-28T07:10:25.342Z,979.69
2018-03-28T07:11:25.522Z,979.74
2018-03-28T07:12:25.701Z,979.74
2018-03-28T07:13:25.917Z,979.71
2018-03-28T07:14:26.062Z,979.72
2018-03-28T07:15:26.256Z,979.71
2018-03-28T07:16:26.427Z,979.73
2018-03-28T07:17:26.575Z,979.70
2018-03-28T07:18:26.744Z,979.71
2018-03-28T07:19:26.923Z,979.69
2018-03-28T07:20:27.121Z,979.70
2018-03-28T07:21:27.297Z,979.72
2018-03-28T07:22:27.487Z,979.70
2018-03-28T07:23:27.698Z,979.74
2018-03-28T07:24:27.853Z,979.69
2018-03-28T07:25:28.027Z,979.65
2018-03-28T07:26:28.212Z,979.67
2018-03-28T07:27:28.379Z,979.66
2018-03-28T07:28:28.558Z,979.65
2018-03-28T07:29:28.741Z,979.65
2018-03-28T07:30:28.930Z,979.62
2018-03-28T07:31:29.115Z,979.62
2018-03-28T07:32:29.273Z,979.61
2018-03-28T07:33:29.699Z,979.60
2018-03-28T07:34:29.634Z,979.60
2018-03-28T07:35:29.789Z,979.64
2018-03-28T07:36:29.961Z,979.63
2018-03-28T07:37:30.152Z,979.61
2018-03-28T07:38:30.335Z,979.55
2018-03-28T07:39:30.524Z,979.60
2018-03-28T07:40:30.746Z,979.59
2018-03-28T07:41:30.833Z,979.59
2018-03-28T07:42:31.027Z,979.54
2018-03-28T07:43:31.190Z,979.58
2018-03-28T07:44:31.389Z,979.55
2018-03-28T07:45:31.553Z,979.60
2018-03-28T07:46:31.696Z,979.61
2018-03-28T07:47:31.878Z,979.60
2018-03-28T07:48:32.049Z,979.62
2018-03-28T07:49:32.227Z,979.62
2018-03-28T07:50:32.392Z,979.63
2018-03-28T07:51:32.611Z,979.63
2018-03-28T07:52:32.781Z,979.65
2018-03-28T07:54:33.120Z,979.63
2018-03-28T07:55:33.286Z,979.62
2018-03-28T07:57:33.620Z,979.67
2018-03-28T07:58:33.804Z,979.60
2018-03-28T07:59:33.970Z,979.68
2018-03-28T08:00:34.135Z,979.64
2018-03-28T08:01:34.340Z,979.64
2018-03-28T08:02:34.506Z,979.61
2018-03-28T08:03:34.708Z,979.64
2018-03-28T08:04:34.855Z,979.64
2018-03-28T08:05:35.033Z,979.63
2018-03-28T08:10:07.684Z,979.61
2018-03-28T08:11:07.863Z,979.64
2018-03-28T08:12:08.046Z,979.63
2018-03-28T08:13:08.223Z,979.60
2018-03-28T08:14:08.413Z,979.62
2018-03-28T08:15:08.595Z,979.66
2018-03-28T08:16:08.780Z,979.63
2018-03-28T08:17:08.954Z,979.64
2018-03-28T08:18:09.662Z,979.66
2018-03-28T08:19:09.303Z,979.63
2018-03-28T08:20:09.785Z,979.62
2018-03-28T08:21:09.649Z,979.65
2018-03-28T08:22:09.826Z,979.60
2018-03-28T08:23:09.997Z,979.54
2018-03-28T08:24:10.167Z,979.59
2018-03-28T08:25:10.370Z,979.54
2018-03-28T08:26:10.529Z,979.52
2018-03-28T08:27:10.720Z,979.52
2018-03-28T08:28:10.896Z,979.57
2018-03-28T08:29:11.075Z,979.55
2018-03-28T08:30:11.251Z,979.60
2018-03-28T08:31:11.426Z,979.56
2018-03-28T08:32:11.598Z,979.54
2018-03-28T08:33:11.783Z,979.56
2018-03-28T08:34:11.951Z,979.58
2018-03-28T08:35:12.129Z,979.62
2018-03-28T08:36:12.303Z,979.56
2018-03-28T08:37:12.482Z,979.54
2018-03-28T08:38:12.665Z,979.58
2018-03-28T08:39:12.903Z,979.54
2018-03-28T08:40:13.270Z,979.57
2018-03-28T08:41:13.187Z,979.53
2018-03-28T08:42:13.368Z,979.52
2018-03-28T08:43:13.572Z,979.56
2018-03-28T08:44:13.728Z,979.52
2018-03-28T08:45:13.901Z,979.54
2018-03-28T08:46:14.065Z,979.54
2018-03-28T08:47:14.244Z,979.55
2018-03-28T08:48:14.428Z,979.57
2018-03-28T08:49:14.605Z,979.59
2018-03-28T08:50:14.826Z,979.62
2018-03-28T08:51:14.971Z,979.62
2018-03-28T08:52:15.174Z,979.61
2018-03-28T08:53:15.332Z,979.60
2018-03-28T08:54:15.498Z,979.58
2018-03-28T08:55:15.684Z,979.61
2018-03-28T08:56:15.870Z,979.63
2018-03-28T08:57:16.048Z,979.66
2018-03-28T08:58:16.225Z,979.68
2018-03-28T08:59:16.451Z,979.62
2018-03-28T09:00:16.573Z,979.67
2018-03-28T09:01:16.749Z,979.66
2018-03-28T09:02:16.920Z,979.64
2018-03-28T09:03:17.089Z,979.60
2018-03-28T09:04:17.279Z,979.63
2018-03-28T09:05:17.461Z,979.56
2018-03-28T09:06:17.691Z,979.59
2018-03-28T09:07:17.796Z,979.63
2018-03-28T09:08:17.969Z,979.60
2018-03-28T09:09:18.169Z,979.62
2018-03-28T09:10:18.325Z,979.62
2018-03-28T09:11:18.506Z,979.61
2018-03-28T09:12:18.686Z,979.58
2018-03-28T09:13:18.862Z,979.56
2018-03-28T09:14:19.042Z,979.49
2018-03-28T09:15:19.226Z,979.48
2018-03-28T09:16:19.392Z,979.51
2018-03-28T09:17:19.547Z,979.54
2018-03-28T09:18:19.712Z,979.54
2018-03-28T09:19:19.887Z,979.48
2018-03-28T09:20:20.066Z,979.52
2018-03-28T09:21:20.257Z,979.56
2018-03-28T09:22:21.182Z,979.52
2018-03-28T09:23:20.644Z,979.52
2018-03-28T09:24:20.822Z,979.50
2018-03-28T09:25:20.990Z,979.49
2018-03-28T09:26:21.252Z,979.48
2018-03-28T09:27:21.366Z,979.52
2018-03-28T09:28:21.513Z,979.47
2018-03-28T09:29:22.243Z,979.52
2018-03-28T09:30:21.946Z,979.55
2018-03-28T09:31:22.098Z,979.51
2018-03-28T09:32:22.297Z,979.50
2018-03-28T09:33:22.473Z,979.49
2018-03-28T09:34:22.638Z,979.48
2018-03-28T09:35:22.830Z,979.45
2018-03-28T09:36:23.014Z,979.48
2018-03-28T09:37:23.201Z,979.46
2018-03-28T09:38:23.355Z,979.46
2018-03-28T09:39:23.542Z,979.48
2018-03-28T09:40:23.724Z,979.48
2018-03-28T09:41:23.906Z,979.46
2018-03-28T09:42:24.091Z,979.46
2018-03-28T09:43:24.280Z,979.47
2018-03-28T09:44:24.447Z,979.43
2018-03-28T09:45:24.625Z,979.44
2018-03-28T09:46:24.810Z,979.42
2018-03-28T09:47:24.989Z,979.40
2018-03-28T09:48:25.162Z,979.42
2018-03-28T09:49:25.340Z,979.38
2018-03-28T09:50:25.520Z,979.40
2018-03-28T09:51:25.692Z,979.40
2018-03-28T09:52:25.899Z,979.43
2018-03-28T09:53:26.067Z,979.41
2018-03-28T09:54:26.225Z,979.40
2018-03-28T09:55:26.433Z,979.36
2018-03-28T09:56:26.655Z,979.42
2018-03-28T09:57:27.768Z,979.43
2018-03-28T09:58:27.735Z,979.43
2018-03-28T09:59:27.039Z,979.44
2018-03-28T10:00:27.221Z,979.38
2018-03-28T10:01:27.412Z,979.42
2018-03-28T10:02:27.615Z,979.46
2018-03-28T10:03:27.771Z,979.41
2018-03-28T10:04:27.966Z,979.43
2018-03-28T10:05:28.171Z,979.41
2018-03-28T10:06:28.303Z,979.43
2018-03-28T10:07:28.484Z,979.40
2018-03-28T10:08:28.658Z,979.39
2018-03-28T10:09:28.832Z,979.42
2018-03-28T10:10:28.996Z,979.36
2018-03-28T10:11:29.174Z,979.39
2018-03-28T10:12:29.344Z,979.37
2018-03-28T10:13:29.533Z,979.41
2018-03-28T10:14:29.699Z,979.43
2018-03-28T10:15:29.873Z,979.42
2018-03-28T10:16:30.044Z,979.45
2018-03-28T10:17:30.277Z,979.37
2018-03-28T10:18:30.420Z,979.38
2018-03-28T10:19:30.565Z,979.40
2018-03-28T10:20:30.738Z,979.39
2018-03-28T10:21:30.910Z,979.37
2018-03-28T10:22:31.106Z,979.39
2018-03-28T10:23:31.266Z,979.42
2018-03-28T10:24:31.712Z,979.42
2018-03-28T10:25:31.620Z,979.40
2018-03-28T10:26:31.786Z,979.42
2018-03-28T10:27:31.952Z,979.33
2018-03-28T10:28:32.120Z,979.33
2018-03-28T10:29:32.302Z,979.35
2018-03-28T10:30:32.472Z,979.31
2018-03-28T10:31:32.636Z,979.32
2018-03-28T10:32:32.803Z,979.37
2018-03-28T10:33:32.968Z,979.36
2018-03-28T10:34:33.137Z,979.30
2018-03-28T10:35:33.306Z,979.30
2018-03-28T10:36:33.477Z,979.24
2018-03-28T10:37:33.659Z,979.25
2018-03-28T10:38:34.933Z,979.23
2018-03-28T10:39:33.991Z,979.21
2018-03-28T10:40:34.160Z,979.19
2018-03-28T10:41:34.339Z,979.16
2018-03-28T10:42:34.512Z,979.14
2018-03-28T10:43:34.661Z,979.13
2018-03-28T10:44:34.827Z,979.14
2018-03-28T10:45:35.004Z,979.18
2018-03-28T10:46:35.186Z,979.12
2018-03-28T10:47:35.351Z,979.10
2018-03-28T10:48:35.555Z,979.08
2018-03-28T10:49:35.699Z,979.09
2018-03-28T10:50:35.857Z,979.09
2018-03-28T10:51:36.022Z,979.07
2018-03-28T10:52:36.198Z,979.04
2018-03-28T10:53:36.375Z,979.05
2018-03-28T10:54:38.284Z,979.04
2018-03-28T10:55:36.684Z,979.05
2018-03-28T10:56:36.845Z,979.01
2018-03-28T10:57:37.025Z,979.01
2018-03-28T10:58:37.217Z,979.07
2018-03-28T10:59:37.346Z,979.02
2018-03-28T11:00:37.561Z,979.06
2018-03-28T11:01:37.727Z,979.03
2018-03-28T11:02:37.899Z,979.06
2018-03-28T11:03:38.071Z,979.03
2018-03-28T11:04:38.248Z,979.01
2018-03-28T11:05:38.417Z,978.99
2018-03-28T11:06:39.199Z,978.96
2018-03-28T11:07:38.802Z,978.98
2018-03-28T11:08:38.970Z,978.94
2018-03-28T11:09:39.139Z,978.93
2018-03-28T11:10:39.592Z,978.94
2018-03-28T11:11:39.513Z,978.92
2018-03-28T11:12:39.703Z,978.96
2018-03-28T11:13:39.879Z,978.89
2018-03-28T11:17:12.368Z,978.87
2018-03-28T11:18:12.651Z,978.96
2018-03-28T11:19:12.726Z,978.97
2018-03-28T11:20:13.404Z,978.93
2018-03-28T11:21:13.075Z,978.94
2018-03-28T11:22:13.260Z,978.92
2018-03-28T11:23:13.432Z,978.92
2018-03-28T11:24:13.612Z,978.88
2018-03-28T11:25:13.816Z,978.89
2018-03-28T11:26:13.966Z,978.89
2018-03-28T11:27:14.174Z,978.86
2018-03-28T11:28:14.336Z,978.88
2018-03-28T11:29:14.518Z,978.84
2018-03-28T11:30:14.714Z,978.82
2018-03-28T11:31:14.900Z,978.86
2018-03-28T11:32:15.069Z,978.93
2018-03-28T11:33:15.257Z,978.89
2018-03-28T11:34:15.682Z,978.88
2018-03-28T11:35:15.624Z,978.90
2018-03-28T11:36:15.814Z,978.88
2018-03-28T11:37:16.002Z,978.89
2018-03-28T11:38:16.186Z,978.84
2018-03-28T11:39:16.372Z,978.84
2018-03-28T11:40:16.540Z,978.88
2018-03-28T11:41:16.733Z,978.86
2018-03-28T11:42:16.920Z,978.87
2018-03-28T11:43:17.067Z,978.84
2018-03-28T11:45:17.414Z,978.88
2018-03-28T11:46:17.584Z,978.84
2018-03-28T11:47:17.755Z,978.82
2018-03-28T11:48:17.931Z,978.82
2018-03-28T11:49:18.118Z,978.77
2018-03-28T11:50:18.299Z,978.82
2018-03-28T11:51:18.480Z,978.78
2018-03-28T11:52:18.668Z,978.77
2018-03-28T11:53:18.848Z,978.83
2018-03-28T11:54:19.068Z,978.78
2018-03-28T11:55:19.204Z,978.83
2018-03-28T11:56:19.386Z,978.85
2018-03-28T11:57:19.535Z,978.88
2018-03-28T11:58:20.441Z,978.86
2018-03-28T11:59:19.954Z,978.85
2018-03-28T12:00:20.120Z,978.90
2018-03-28T12:01:20.294Z,978.89
2018-03-28T12:02:20.495Z,978.92
2018-03-28T12:03:20.633Z,978.84
2018-03-28T12:04:20.821Z,978.88
2018-03-28T12:05:20.978Z,978.79
2018-03-28T12:06:21.148Z,978.79
2018-03-28T12:07:21.327Z,978.84
2018-03-28T12:08:21.506Z,978.76
2018-03-28T12:09:21.693Z,978.77
2018-03-28T12:10:21.892Z,978.76
2018-03-28T12:11:22.063Z,978.79
2018-03-28T12:12:22.251Z,978.79
2018-03-28T12:13:22.412Z,978.77
2018-03-28T12:14:22.592Z,978.74
2018-03-28T12:15:22.758Z,978.71
2018-03-28T12:16:22.925Z,978.67
2018-03-28T12:17:23.089Z,978.65
2018-03-28T12:18:23.260Z,978.56
2018-03-28T12:19:23.459Z,978.64
2018-03-28T12:20:23.633Z,978.60
2018-03-28T12:21:23.822Z,978.58
2018-03-28T12:22:23.999Z,978.56
2018-03-28T12:23:24.188Z,978.55
2018-03-28T12:24:24.319Z,978.55
2018-03-28T12:25:24.496Z,978.54
2018-03-28T12:26:24.649Z,978.52
2018-03-28T12:27:24.830Z,978.48
2018-03-28T12:28:25.027Z,978.43
2018-03-28T12:29:25.307Z,978.43
2018-03-28T12:30:25.347Z,978.40
2018-03-28T12:31:25.510Z,978.43
2018-03-28T12:32:25.677Z,978.36
2018-03-28T12:33:25.836Z,978.35
2018-03-28T12:34:26.004Z,978.37
2018-03-28T12:35:26.195Z,978.32
2018-03-28T12:36:26.374Z,978.34
2018-03-28T12:37:26.535Z,978.32
2018-03-28T12:38:26.712Z,978.27
2018-03-28T12:39:26.874Z,978.31
2018-03-28T12:40:27.032Z,978.29
2018-03-28T12:41:27.197Z,978.20
2018-03-28T12:42:27.400Z,978.23
2018-03-28T12:43:27.566Z,978.26
2018-03-28T12:44:27.751Z,978.18